sensor_id;sensor_type;location;lat;lon;timestamp;pressure;altitude;pressure_sealevel;temperature;humidity
64064;BME280;50314;50.618;10.642;2022-09-24T00:01:44;96473.84;;;19.07;24.41
64064;BME280;50314;50.618;10.642;2022-09-24T00:04:10;96471.66;;;19.11;24.09
64064;BME280;50314;50.618;10.642;2022-09-24T00:06:39;96462.81;;;19.10;23.98
64064;BME280;50314;50.618;10.642;2022-09-24T00:09:05;96463.84;;;19.09;24.29
64064;BME280;50314;50.618;10.642;2022-09-24T00:11:31;96470.19;;;19.08;23.86
64064;BME280;50314;50.618;10.642;2022-09-24T00:13:58;96462.34;;;19.07;24.22
64064;BME280;50314;50.618;10.642;2022-09-24T00:16:26;96453.84;;;19.03;24.36
64064;BME280;50314;50.618;10.642;2022-09-24T00:18:52;96463.69;;;19.02;24.21
64064;BME280;50314;50.618;10.642;2022-09-24T00:21:23;96460.53;;;18.99;24.15
64064;BME280;50314;50.618;10.642;2022-09-24T00:23:55;96465.06;;;18.98;24.45
64064;BME280;50314;50.618;10.642;2022-09-24T00:26:21;96465.88;;;18.99;23.99
64064;BME280;50314;50.618;10.642;2022-09-24T00:29:06;96460.06;;;18.95;24.23
64064;BME280;50314;50.618;10.642;2022-09-24T00:31:32;96457.53;;;18.94;24.29
64064;BME280;50314;50.618;10.642;2022-09-24T00:33:57;96460.41;;;18.92;24.35
64064;BME280;50314;50.618;10.642;2022-09-24T00:36:23;96456.91;;;18.92;24.04
64064;BME280;50314;50.618;10.642;2022-09-24T00:38:53;96459.22;;;18.87;24.23
64064;BME280;50314;50.618;10.642;2022-09-24T00:41:21;96457.41;;;18.87;24.37
64064;BME280;50314;50.618;10.642;2022-09-24T00:43:48;96461.91;;;18.87;24.10
64064;BME280;50314;50.618;10.642;2022-09-24T00:46:33;96456.59;;;18.78;24.09
64064;BME280;50314;50.618;10.642;2022-09-24T00:49:11;96457.59;;;18.77;24.30
64064;BME280;50314;50.618;10.642;2022-09-24T00:51:37;96456.59;;;18.78;24.64
64064;BME280;50314;50.618;10.642;2022-09-24T00:54:07;96451.41;;;18.77;24.22
64064;BME280;50314;50.618;10.642;2022-09-24T00:56:35;96453.41;;;18.75;24.26
64064;BME280;50314;50.618;10.642;2022-09-24T00:59:03;96453.41;;;18.75;24.45
64064;BME280;50314;50.618;10.642;2022-09-24T01:01:30;96450.75;;;18.75;24.10
64064;BME280;50314;50.618;10.642;2022-09-24T01:03:57;96454.41;;;18.74;24.50
64064;BME280;50314;50.618;10.642;2022-09-24T01:06:23;96449.09;;;18.66;24.68
64064;BME280;50314;50.618;10.642;2022-09-24T01:08:49;96445.13;;;18.62;24.79
64064;BME280;50314;50.618;10.642;2022-09-24T01:14:02;96441.91;;;18.66;24.23
64064;BME280;50314;50.618;10.642;2022-09-24T01:30:11;96432.94;;;18.59;24.37
64064;BME280;50314;50.618;10.642;2022-09-24T01:32:44;96431.44;;;18.57;24.68
64064;BME280;50314;50.618;10.642;2022-09-24T01:35:27;96434.63;;;18.52;24.71
64064;BME280;50314;50.618;10.642;2022-09-24T01:38:00;96427.31;;;18.54;24.62
64064;BME280;50314;50.618;10.642;2022-09-24T01:40:27;96423.63;;;18.55;24.30
64064;BME280;50314;50.618;10.642;2022-09-24T01:42:56;96422.94;;;18.53;24.16
64064;BME280;50314;50.618;10.642;2022-09-24T01:45:23;96414.94;;;18.53;24.66
64064;BME280;50314;50.618;10.642;2022-09-24T01:47:49;96414.16;;;18.44;24.79
64064;BME280;50314;50.618;10.642;2022-09-24T01:50:17;96410.78;;;18.50;24.25
64064;BME280;50314;50.618;10.642;2022-09-24T01:53:05;96407.97;;;18.44;24.66
64064;BME280;50314;50.618;10.642;2022-09-24T01:55:36;96407.81;;;18.45;24.72
64064;BME280;50314;50.618;10.642;2022-09-24T01:58:07;96408.63;;;18.46;24.69
64064;BME280;50314;50.618;10.642;2022-09-24T02:00:38;96411.31;;;18.46;24.28
64064;BME280;50314;50.618;10.642;2022-09-24T02:03:13;96408.81;;;18.44;24.55
64064;BME280;50314;50.618;10.642;2022-09-24T02:08:13;96413.13;;;18.45;24.54
64064;BME280;50314;50.618;10.642;2022-09-24T02:10:53;96409.31;;;18.40;24.56
64064;BME280;50314;50.618;10.642;2022-09-24T02:13:21;96401.81;;;18.43;24.53
64064;BME280;50314;50.618;10.642;2022-09-24T02:15:52;96399.31;;;18.42;24.25
64064;BME280;50314;50.618;10.642;2022-09-24T02:18:22;96395.16;;;18.39;24.35
64064;BME280;50314;50.618;10.642;2022-09-24T02:20:50;96392.31;;;18.41;24.59
64064;BME280;50314;50.618;10.642;2022-09-24T02:23:16;96391.47;;;18.40;24.19
64064;BME280;50314;50.618;10.642;2022-09-24T02:25:55;96387.34;;;18.38;24.27
64064;BME280;50314;50.618;10.642;2022-09-24T02:28:23;96380.16;;;18.38;24.55
64064;BME280;50314;50.618;10.642;2022-09-24T02:30:52;96375.84;;;18.37;24.24
64064;BME280;50314;50.618;10.642;2022-09-24T02:33:20;96378.50;;;18.37;24.21
64064;BME280;50314;50.618;10.642;2022-09-24T02:36:06;96377.84;;;18.35;24.64
64064;BME280;50314;50.618;10.642;2022-09-24T02:38:32;96366.34;;;18.35;24.51
64064;BME280;50314;50.618;10.642;2022-09-24T02:40:57;96354.66;;;18.36;24.61
64064;BME280;50314;50.618;10.642;2022-09-24T02:43:23;96350.34;;;18.35;24.35
64064;BME280;50314;50.618;10.642;2022-09-24T02:45:50;96351.31;;;18.34;24.65
64064;BME280;50314;50.618;10.642;2022-09-24T02:48:15;96357.53;;;18.34;24.28
64064;BME280;50314;50.618;10.642;2022-09-24T02:50:41;96355.84;;;18.33;24.35
64064;BME280;50314;50.618;10.642;2022-09-24T02:53:06;96347.00;;;18.33;24.39
64064;BME280;50314;50.618;10.642;2022-09-24T02:55:31;96347.00;;;18.33;24.14
64064;BME280;50314;50.618;10.642;2022-09-24T02:57:57;96356.03;;;18.31;24.37
64064;BME280;50314;50.618;10.642;2022-09-24T03:00:22;96351.69;;;18.30;24.58
64064;BME280;50314;50.618;10.642;2022-09-24T03:02:48;96346.53;;;18.29;24.39
64064;BME280;50314;50.618;10.642;2022-09-24T03:05:13;96345.69;;;18.28;24.52
64064;BME280;50314;50.618;10.642;2022-09-24T03:07:43;96338.72;;;18.27;24.67
64064;BME280;50314;50.618;10.642;2022-09-24T03:10:08;96340.50;;;18.27;24.30
64064;BME280;50314;50.618;10.642;2022-09-24T03:12:34;96334.53;;;18.25;24.62
64064;BME280;50314;50.618;10.642;2022-09-24T03:14:59;96331.03;;;18.24;24.33
64064;BME280;50314;50.618;10.642;2022-09-24T03:17:25;96321.38;;;18.23;24.47
64064;BME280;50314;50.618;10.642;2022-09-24T03:19:51;96323.38;;;18.21;24.41
64064;BME280;50314;50.618;10.642;2022-09-24T03:22:17;96317.22;;;18.21;24.71
64064;BME280;50314;50.618;10.642;2022-09-24T03:24:42;96316.41;;;18.20;24.32
64064;BME280;50314;50.618;10.642;2022-09-24T03:27:08;96310.22;;;18.20;24.33
64064;BME280;50314;50.618;10.642;2022-09-24T03:29:33;96314.72;;;18.19;24.74
64064;BME280;50314;50.618;10.642;2022-09-24T03:32:17;96314.06;;;18.17;24.49
64064;BME280;50314;50.618;10.642;2022-09-24T03:34:42;96317.72;;;18.16;24.32
64064;BME280;50314;50.618;10.642;2022-09-24T03:37:08;96323.06;;;18.16;24.58
64064;BME280;50314;50.618;10.642;2022-09-24T03:39:33;96324.06;;;18.15;24.73
64064;BME280;50314;50.618;10.642;2022-09-24T03:41:58;96319.75;;;18.14;24.45
64064;BME280;50314;50.618;10.642;2022-09-24T03:44:24;96323.38;;;18.13;24.34
64064;BME280;50314;50.618;10.642;2022-09-24T03:46:50;96320.88;;;18.12;24.66
64064;BME280;50314;50.618;10.642;2022-09-24T03:49:15;96323.72;;;18.10;24.83
64064;BME280;50314;50.618;10.642;2022-09-24T03:51:41;96321.41;;;18.07;24.79
64064;BME280;50314;50.618;10.642;2022-09-24T03:54:06;96324.22;;;18.05;24.60
64064;BME280;50314;50.618;10.642;2022-09-24T03:56:32;96329.06;;;18.02;24.62
64064;BME280;50314;50.618;10.642;2022-09-24T03:58:57;96329.38;;;17.99;24.73
64064;BME280;50314;50.618;10.642;2022-09-24T04:01:22;96327.06;;;17.96;24.80
64064;BME280;50314;50.618;10.642;2022-09-24T04:03:48;96333.22;;;17.96;24.59
64064;BME280;50314;50.618;10.642;2022-09-24T04:06:14;96319.06;;;17.96;24.95
64064;BME280;50314;50.618;10.642;2022-09-24T04:08:39;96324.41;;;17.96;24.80
64064;BME280;50314;50.618;10.642;2022-09-24T04:11:05;96316.41;;;17.96;24.78
64064;BME280;50314;50.618;10.642;2022-09-24T04:13:30;96321.91;;;17.94;25.07
64064;BME280;50314;50.618;10.642;2022-09-24T04:16:01;96334.41;;;17.94;25.12
64064;BME280;50314;50.618;10.642;2022-09-24T04:18:26;96329.72;;;17.96;25.00
64064;BME280;50314;50.618;10.642;2022-09-24T04:20:57;96327.25;;;17.94;24.84
64064;BME280;50314;50.618;10.642;2022-09-24T04:23:22;96328.91;;;17.95;25.00
64064;BME280;50314;50.618;10.642;2022-09-24T04:25:47;96327.25;;;17.94;24.65
64064;BME280;50314;50.618;10.642;2022-09-24T04:28:13;96337.06;;;17.94;25.04
64064;BME280;50314;50.618;10.642;2022-09-24T04:30:38;96341.72;;;17.92;24.92
64064;BME280;50314;50.618;10.642;2022-09-24T04:33:04;96337.41;;;17.91;24.81
64064;BME280;50314;50.618;10.642;2022-09-24T04:35:31;96338.38;;;17.90;24.89
64064;BME280;50314;50.618;10.642;2022-09-24T04:37:59;96335.91;;;17.88;24.79
64064;BME280;50314;50.618;10.642;2022-09-24T04:40:25;96337.56;;;17.89;24.73
64064;BME280;50314;50.618;10.642;2022-09-24T04:42:51;96342.06;;;17.89;24.83
64064;BME280;50314;50.618;10.642;2022-09-24T04:45:17;96348.22;;;17.89;25.16
64064;BME280;50314;50.618;10.642;2022-09-24T04:47:43;96344.72;;;17.89;25.06
64064;BME280;50314;50.618;10.642;2022-09-24T04:50:10;96351.06;;;17.88;24.78
64064;BME280;50314;50.618;10.642;2022-09-24T04:52:36;96346.38;;;17.90;25.04
64064;BME280;50314;50.618;10.642;2022-09-24T04:55:02;96340.22;;;17.89;25.17
64064;BME280;50314;50.618;10.642;2022-09-24T04:57:29;96339.41;;;17.89;24.74
64064;BME280;50314;50.618;10.642;2022-09-24T04:59:59;96342.25;;;17.87;25.00
64064;BME280;50314;50.618;10.642;2022-09-24T05:02:24;96336.09;;;17.87;24.76
64064;BME280;50314;50.618;10.642;2022-09-24T05:04:49;96332.41;;;17.88;24.86
64064;BME280;50314;50.618;10.642;2022-09-24T05:07:15;96331.41;;;17.89;24.86
64064;BME280;50314;50.618;10.642;2022-09-24T05:09:40;96329.75;;;17.88;25.10
64064;BME280;50314;50.618;10.642;2022-09-24T05:12:05;96331.41;;;17.89;25.07
64064;BME280;50314;50.618;10.642;2022-09-24T05:14:31;96335.06;;;17.88;25.02
64064;BME280;50314;50.618;10.642;2022-09-24T05:16:56;96334.41;;;17.85;25.16
64064;BME280;50314;50.618;10.642;2022-09-24T05:19:22;96334.41;;;17.85;25.24
64064;BME280;50314;50.618;10.642;2022-09-24T05:21:47;96330.06;;;17.84;25.16
64064;BME280;50314;50.618;10.642;2022-09-24T05:24:13;96333.56;;;17.85;24.93
64064;BME280;50314;50.618;10.642;2022-09-24T05:26:39;96327.41;;;17.84;25.15
64064;BME280;50314;50.618;10.642;2022-09-24T05:29:23;96338.22;;;17.83;24.96
64064;BME280;50314;50.618;10.642;2022-09-24T05:31:49;96341.75;;;17.83;25.09
64064;BME280;50314;50.618;10.642;2022-09-24T05:34:14;96347.06;;;17.83;24.99
64064;BME280;50314;50.618;10.642;2022-09-24T05:36:40;96354.06;;;17.84;25.15
64064;BME280;50314;50.618;10.642;2022-09-24T05:39:08;96354.06;;;17.84;24.86
64064;BME280;50314;50.618;10.642;2022-09-24T05:41:33;96352.41;;;17.83;25.17
64064;BME280;50314;50.618;10.642;2022-09-24T05:43:59;96351.38;;;17.84;24.91
64064;BME280;50314;50.618;10.642;2022-09-24T05:46:25;96346.06;;;17.84;25.03
64064;BME280;50314;50.618;10.642;2022-09-24T05:48:50;96333.56;;;17.85;25.02
64064;BME280;50314;50.618;10.642;2022-09-24T05:51:15;96323.75;;;17.85;25.07
64064;BME280;50314;50.618;10.642;2022-09-24T05:53:41;96323.75;;;17.85;24.90
64064;BME280;50314;50.618;10.642;2022-09-24T05:56:07;96316.44;;;17.88;25.02
64064;BME280;50314;50.618;10.642;2022-09-24T05:58:34;96316.44;;;17.88;24.99
64064;BME280;50314;50.618;10.642;2022-09-24T06:00:59;96318.91;;;17.89;25.23
64064;BME280;50314;50.618;10.642;2022-09-24T06:03:26;96316.44;;;17.88;25.14
64064;BME280;50314;50.618;10.642;2022-09-24T06:05:51;96305.78;;;17.88;24.91
64064;BME280;50314;50.618;10.642;2022-09-24T06:08:19;96310.28;;;17.87;25.13
64064;BME280;50314;50.618;10.642;2022-09-24T06:10:45;96312.75;;;17.89;25.41
64064;BME280;50314;50.618;10.642;2022-09-24T06:13:13;96317.25;;;17.88;25.00
64064;BME280;50314;50.618;10.642;2022-09-24T06:15:40;96321.56;;;17.89;25.02
64064;BME280;50314;50.618;10.642;2022-09-24T06:18:07;96321.56;;;17.89;25.10
64064;BME280;50314;50.618;10.642;2022-09-24T06:20:33;96319.72;;;17.90;25.06
64064;BME280;50314;50.618;10.642;2022-09-24T06:22:59;96324.25;;;17.89;25.26
64064;BME280;50314;50.618;10.642;2022-09-24T06:25:25;96329.56;;;17.89;24.98
64064;BME280;50314;50.618;10.642;2022-09-24T06:27:58;96313.75;;;17.88;25.09
64064;BME280;50314;50.618;10.642;2022-09-24T06:30:29;96323.75;;;17.94;25.15
64064;BME280;50314;50.618;10.642;2022-09-24T06:33:00;96314.94;;;17.93;25.31
64064;BME280;50314;50.618;10.642;2022-09-24T06:35:26;96320.38;;;18.00;25.34
64064;BME280;50314;50.618;10.642;2022-09-24T06:37:51;96323.72;;;18.02;25.27
64064;BME280;50314;50.618;10.642;2022-09-24T06:40:17;96323.06;;;18.08;25.22
64064;BME280;50314;50.618;10.642;2022-09-24T06:42:42;96322.56;;;18.13;25.00
64064;BME280;50314;50.618;10.642;2022-09-24T06:45:08;96325.72;;;18.16;24.83
64064;BME280;50314;50.618;10.642;2022-09-24T06:47:34;96322.38;;;18.22;24.94
64064;BME280;50314;50.618;10.642;2022-09-24T06:49:59;96319.38;;;18.25;24.75
64064;BME280;50314;50.618;10.642;2022-09-24T06:52:28;96311.88;;;18.29;24.60
64064;BME280;50314;50.618;10.642;2022-09-24T06:54:53;96316.34;;;18.37;24.67
64064;BME280;50314;50.618;10.642;2022-09-24T06:57:20;96319.34;;;18.42;24.93
64064;BME280;50314;50.618;10.642;2022-09-24T06:59:46;96321.31;;;18.48;24.61
64064;BME280;50314;50.618;10.642;2022-09-24T07:02:12;96322.44;;;18.53;24.84
64064;BME280;50314;50.618;10.642;2022-09-24T07:04:37;96319.28;;;18.58;24.81
64064;BME280;50314;50.618;10.642;2022-09-24T07:07:04;96329.91;;;18.66;24.47
64064;BME280;50314;50.618;10.642;2022-09-24T07:09:48;96329.41;;;18.71;24.42
64064;BME280;50314;50.618;10.642;2022-09-24T07:12:14;96326.19;;;18.75;24.83
64064;BME280;50314;50.618;10.642;2022-09-24T07:14:39;96322.69;;;18.83;24.85
64064;BME280;50314;50.618;10.642;2022-09-24T07:17:04;96328.16;;;18.90;24.72
64064;BME280;50314;50.618;10.642;2022-09-24T07:19:30;96329.09;;;18.97;24.20
64064;BME280;50314;50.618;10.642;2022-09-24T07:21:55;96335.75;;;19.01;24.14
64064;BME280;50314;50.618;10.642;2022-09-24T07:24:21;96341.41;;;19.06;24.07
64064;BME280;50314;50.618;10.642;2022-09-24T07:26:47;96328.53;;;19.10;24.38
64064;BME280;50314;50.618;10.642;2022-09-24T07:29:12;96335.19;;;19.14;23.97
64064;BME280;50314;50.618;10.642;2022-09-24T07:31:38;96340.16;;;19.17;23.99
64064;BME280;50314;50.618;10.642;2022-09-24T07:34:06;96336.59;;;19.24;24.40
64064;BME280;50314;50.618;10.642;2022-09-24T07:36:31;96333.91;;;19.33;24.39
64064;BME280;50314;50.618;10.642;2022-09-24T07:38:57;96337.06;;;19.36;24.38
64064;BME280;50314;50.618;10.642;2022-09-24T07:41:22;96334.69;;;19.41;24.38
64064;BME280;50314;50.618;10.642;2022-09-24T07:43:48;96337.84;;;19.45;24.04
64064;BME280;50314;50.618;10.642;2022-09-24T07:46:13;96334.00;;;19.47;24.38
64064;BME280;50314;50.618;10.642;2022-09-24T07:48:38;96340.81;;;19.50;24.15
64064;BME280;50314;50.618;10.642;2022-09-24T07:51:04;96337.13;;;19.51;24.32
64064;BME280;50314;50.618;10.642;2022-09-24T07:53:30;96344.16;;;19.52;24.02
64064;BME280;50314;50.618;10.642;2022-09-24T07:55:59;96341.47;;;19.52;24.11
64064;BME280;50314;50.618;10.642;2022-09-24T07:58:24;96340.28;;;19.55;23.99
64064;BME280;50314;50.618;10.642;2022-09-24T08:00:49;96344.78;;;19.54;23.74
64064;BME280;50314;50.618;10.642;2022-09-24T08:03:15;96337.44;;;19.56;24.33
64064;BME280;50314;50.618;10.642;2022-09-24T08:05:42;96338.06;;;19.58;24.19
64064;BME280;50314;50.618;10.642;2022-09-24T08:08:09;96332.72;;;19.58;24.14
64064;BME280;50314;50.618;10.642;2022-09-24T08:10:35;96327.22;;;19.60;24.07
64064;BME280;50314;50.618;10.642;2022-09-24T08:13:01;96319.84;;;19.62;24.22
64064;BME280;50314;50.618;10.642;2022-09-24T08:15:26;96320.50;;;19.64;23.81
64064;BME280;50314;50.618;10.642;2022-09-24T08:17:52;96319.13;;;19.68;23.80
64064;BME280;50314;50.618;10.642;2022-09-24T08:20:17;96322.94;;;19.74;23.80
64064;BME280;50314;50.618;10.642;2022-09-24T08:22:43;96315.97;;;19.87;24.14
64064;BME280;50314;50.618;10.642;2022-09-24T08:25:08;96323.66;;;20.05;23.65
64064;BME280;50314;50.618;10.642;2022-09-24T08:27:34;96329.03;;;20.35;23.82
64064;BME280;50314;50.618;10.642;2022-09-24T08:30:02;96322.78;;;20.87;23.63
64064;BME280;50314;50.618;10.642;2022-09-24T08:32:27;96320.06;;;21.38;23.01
64064;BME280;50314;50.618;10.642;2022-09-24T08:34:53;96317.00;;;21.84;22.47
64064;BME280;50314;50.618;10.642;2022-09-24T08:37:19;96326.59;;;22.28;22.00
64064;BME280;50314;50.618;10.642;2022-09-24T08:39:45;96328.50;;;22.69;21.94
64064;BME280;50314;50.618;10.642;2022-09-24T08:42:18;96321.25;;;23.04;20.42
64064;BME280;50314;50.618;10.642;2022-09-24T08:44:47;96321.31;;;23.31;20.37
64064;BME280;50314;50.618;10.642;2022-09-24T08:47:54;96321.72;;;23.28;19.51
64064;BME280;50314;50.618;10.642;2022-09-24T08:50:25;96320.91;;;23.27;19.70
64064;BME280;50314;50.618;10.642;2022-09-24T08:55:35;96332.50;;;23.34;20.74
64064;BME280;50314;50.618;10.642;2022-09-24T08:58:15;96338.94;;;23.47;19.61
64064;BME280;50314;50.618;10.642;2022-09-24T09:01:20;96338.13;;;23.53;19.83
64064;BME280;50314;50.618;10.642;2022-09-24T09:09:16;96348.72;;;23.87;19.85
64064;BME280;50314;50.618;10.642;2022-09-24T09:11:46;96340.84;;;23.92;19.76
64064;BME280;50314;50.618;10.642;2022-09-24T09:14:20;96340.06;;;23.99;19.51
64064;BME280;50314;50.618;10.642;2022-09-24T09:16:52;96336.56;;;24.05;19.75
64064;BME280;50314;50.618;10.642;2022-09-24T09:19:25;96340.47;;;24.09;19.84
64064;BME280;50314;50.618;10.642;2022-09-24T09:21:56;96329.69;;;24.22;19.54
64064;BME280;50314;50.618;10.642;2022-09-24T09:24:45;96321.00;;;24.27;19.57
64064;BME280;50314;50.618;10.642;2022-09-24T09:27:13;96318.53;;;24.25;19.95
64064;BME280;50314;50.618;10.642;2022-09-24T09:29:40;96321.22;;;24.19;19.79
64064;BME280;50314;50.618;10.642;2022-09-24T09:40:40;96327.63;;;23.84;19.01
64064;BME280;50314;50.618;10.642;2022-09-24T09:43:12;96341.06;;;23.84;19.12
64064;BME280;50314;50.618;10.642;2022-09-24T09:48:24;96337.75;;;23.89;19.11
64064;BME280;50314;50.618;10.642;2022-09-24T09:50:58;96337.97;;;23.87;18.73
64064;BME280;50314;50.618;10.642;2022-09-24T09:53:28;96339.84;;;24.00;18.79
64064;BME280;50314;50.618;10.642;2022-09-24T10:00:50;96336.50;;;24.38;18.63
64064;BME280;50314;50.618;10.642;2022-09-24T10:03:31;96332.97;;;24.37;18.32
64064;BME280;50314;50.618;10.642;2022-09-24T10:06:02;96330.50;;;24.36;18.62
64064;BME280;50314;50.618;10.642;2022-09-24T10:08:29;96335.47;;;24.32;18.74
64064;BME280;50314;50.618;10.642;2022-09-24T10:10:57;96336.31;;;24.26;18.27
64064;BME280;50314;50.618;10.642;2022-09-24T10:13:23;96335.91;;;24.16;18.35
64064;BME280;50314;50.618;10.642;2022-09-24T10:15:53;96324.50;;;24.14;18.64
64064;BME280;50314;50.618;10.642;2022-09-24T10:18:40;96330.53;;;24.03;18.32
64064;BME280;50314;50.618;10.642;2022-09-24T10:21:11;96333.41;;;23.95;18.99
64064;BME280;50314;50.618;10.642;2022-09-24T10:23:41;96337.13;;;23.87;18.46
64064;BME280;50314;50.618;10.642;2022-09-24T10:26:08;96343.13;;;23.82;18.98
64064;BME280;50314;50.618;10.642;2022-09-24T10:28:39;96343.94;;;23.76;19.02
64064;BME280;50314;50.618;10.642;2022-09-24T10:31:28;96337.34;;;23.72;19.34
64064;BME280;50314;50.618;10.642;2022-09-24T10:33:56;96348.09;;;23.72;19.21
64064;BME280;50314;50.618;10.642;2022-09-24T10:36:25;96350.16;;;23.77;18.94
64064;BME280;50314;50.618;10.642;2022-09-24T10:41:32;96340.47;;;24.09;19.53
64064;BME280;50314;50.618;10.642;2022-09-24T10:44:02;96338.56;;;24.36;18.70
64064;BME280;50314;50.618;10.642;2022-09-24T10:54:45;96333.66;;;24.91;17.69
64064;BME280;50314;50.618;10.642;2022-09-24T10:57:19;96327.03;;;25.00;17.74
64064;BME280;50314;50.618;10.642;2022-09-24T11:04:58;96315.19;;;25.08;17.15
64064;BME280;50314;50.618;10.642;2022-09-24T11:10:20;96309.59;;;25.10;17.60
64064;BME280;50314;50.618;10.642;2022-09-24T11:13:06;96307.34;;;25.00;17.03
64064;BME280;50314;50.618;10.642;2022-09-24T11:16:12;96304.66;;;24.93;17.00
64064;BME280;50314;50.618;10.642;2022-09-24T11:30:11;96297.31;;;24.69;16.87
64064;BME280;50314;50.618;10.642;2022-09-24T11:38:05;96293.84;;;24.55;16.61
64064;BME280;50314;50.618;10.642;2022-09-24T11:43:17;96308.97;;;24.56;16.96
64064;BME280;50314;50.618;10.642;2022-09-24T11:46:13;96299.41;;;24.47;16.57
64064;BME280;50314;50.618;10.642;2022-09-24T11:51:49;96299.44;;;24.40;16.88
64064;BME280;50314;50.618;10.642;2022-09-24T11:54:32;96294.47;;;24.37;17.24
64064;BME280;50314;50.618;10.642;2022-09-24T11:57:22;96290.56;;;24.33;17.09
64064;BME280;50314;50.618;10.642;2022-09-24T12:00:05;96287.44;;;24.36;17.46
64064;BME280;50314;50.618;10.642;2022-09-24T12:02:53;96280.81;;;24.38;17.74
64064;BME280;50314;50.618;10.642;2022-09-24T12:05:42;96275.63;;;24.44;17.46
64064;BME280;50314;50.618;10.642;2022-09-24T12:08:16;96276.84;;;24.54;17.63
64064;BME280;50314;50.618;10.642;2022-09-24T12:13:26;96273.94;;;24.63;18.00
64064;BME280;50314;50.618;10.642;2022-09-24T12:16:06;96272.91;;;24.57;17.80
64064;BME280;50314;50.618;10.642;2022-09-24T12:18:45;96272.91;;;24.57;18.04
64064;BME280;50314;50.618;10.642;2022-09-24T12:21:21;96275.38;;;24.65;17.54
64064;BME280;50314;50.618;10.642;2022-09-24T12:23:51;96275.38;;;24.65;17.82
64064;BME280;50314;50.618;10.642;2022-09-24T12:26:19;96267.09;;;24.67;17.99
64064;BME280;50314;50.618;10.642;2022-09-24T12:37:46;96262.75;;;24.66;17.73
64064;BME280;50314;50.618;10.642;2022-09-24T12:43:17;96267.50;;;24.64;17.33
64064;BME280;50314;50.618;10.642;2022-09-24T12:45:44;96271.22;;;24.69;17.48
64064;BME280;50314;50.618;10.642;2022-09-24T12:48:12;96271.66;;;24.66;17.79
64064;BME280;50314;50.618;10.642;2022-09-24T12:50:39;96263.31;;;24.74;17.49
64064;BME280;50314;50.618;10.642;2022-09-24T12:53:19;96261.91;;;24.72;17.35
64064;BME280;50314;50.618;10.642;2022-09-24T12:55:49;96264.09;;;24.81;17.48
64064;BME280;50314;50.618;10.642;2022-09-24T12:58:43;96256.28;;;24.73;16.99
64064;BME280;50314;50.618;10.642;2022-09-24T13:03:40;96260.81;;;24.79;17.19
64064;BME280;50314;50.618;10.642;2022-09-24T13:06:28;96262.28;;;24.75;16.80
64064;BME280;50314;50.618;10.642;2022-09-24T13:08:54;96256.66;;;24.83;17.14
64064;BME280;50314;50.618;10.642;2022-09-24T13:14:19;96257.09;;;24.74;17.64
64064;BME280;50314;50.618;10.642;2022-09-24T13:16:50;96250.66;;;24.75;17.44
64064;BME280;50314;50.618;10.642;2022-09-24T13:21:53;96252.38;;;24.69;16.31
64064;BME280;50314;50.618;10.642;2022-09-24T13:24:31;96256.72;;;24.64;16.45
64064;BME280;50314;50.618;10.642;2022-09-24T13:29:47;96255.50;;;24.66;17.14
64064;BME280;50314;50.618;10.642;2022-09-24T13:32:18;96253.00;;;24.65;16.97
64064;BME280;50314;50.618;10.642;2022-09-24T13:34:46;96240.59;;;24.64;17.02
64064;BME280;50314;50.618;10.642;2022-09-24T13:37:29;96245.78;;;24.58;16.53
64064;BME280;50314;50.618;10.642;2022-09-24T13:40:03;96239.75;;;24.63;16.74
64064;BME280;50314;50.618;10.642;2022-09-24T13:42:34;96244.31;;;24.63;16.73
64064;BME280;50314;50.618;10.642;2022-09-24T13:45:04;96238.13;;;24.62;16.24
64064;BME280;50314;50.618;10.642;2022-09-24T13:50:29;96237.75;;;24.52;16.54
64064;BME280;50314;50.618;10.642;2022-09-24T13:53:26;96236.91;;;24.45;16.34
64064;BME280;50314;50.618;10.642;2022-09-24T13:55:56;96246.41;;;24.47;16.64
64064;BME280;50314;50.618;10.642;2022-09-24T13:58:36;96237.34;;;24.42;16.96
64064;BME280;50314;50.618;10.642;2022-09-24T14:01:09;96234.66;;;24.42;16.70
64064;BME280;50314;50.618;10.642;2022-09-24T14:03:36;96236.72;;;24.39;16.60
64064;BME280;50314;50.618;10.642;2022-09-24T14:06:13;96233.22;;;24.32;16.58
64064;BME280;50314;50.618;10.642;2022-09-24T14:08:41;96232.81;;;24.35;16.82
64064;BME280;50314;50.618;10.642;2022-09-24T14:11:18;96230.72;;;24.31;17.52
64064;BME280;50314;50.618;10.642;2022-09-24T14:13:44;96227.03;;;24.32;17.30
64064;BME280;50314;50.618;10.642;2022-09-24T14:16:20;96232.41;;;24.25;16.69
64064;BME280;50314;50.618;10.642;2022-09-24T14:18:47;96228.69;;;24.26;17.11
64064;BME280;50314;50.618;10.642;2022-09-24T14:21:18;96230.75;;;24.24;17.29
64064;BME280;50314;50.618;10.642;2022-09-24T14:23:55;96229.34;;;24.15;16.85
64064;BME280;50314;50.618;10.642;2022-09-24T14:26:27;96218.78;;;24.13;17.04
64064;BME280;50314;50.618;10.642;2022-09-24T14:28:55;96231.81;;;24.10;17.38
64064;BME280;50314;50.618;10.642;2022-09-24T14:31:22;96231.22;;;24.08;16.82
64064;BME280;50314;50.618;10.642;2022-09-24T14:33:47;96220.88;;;24.05;16.88
64064;BME280;50314;50.618;10.642;2022-09-24T14:36:13;96229.97;;;24.04;16.82
64064;BME280;50314;50.618;10.642;2022-09-24T14:39:10;96229.97;;;23.97;17.28
64064;BME280;50314;50.618;10.642;2022-09-24T14:41:35;96231.44;;;24.00;16.86
64064;BME280;50314;50.618;10.642;2022-09-24T14:44:11;96227.53;;;23.96;17.63
64064;BME280;50314;50.618;10.642;2022-09-24T14:46:48;96223.16;;;23.88;17.61
64064;BME280;50314;50.618;10.642;2022-09-24T14:49:22;96222.13;;;23.89;17.21
64064;BME280;50314;50.618;10.642;2022-09-24T14:51:59;96220.06;;;23.84;17.81
64064;BME280;50314;50.618;10.642;2022-09-24T14:54:31;96223.59;;;23.78;17.68
64064;BME280;50314;50.618;10.642;2022-09-24T14:59:41;96221.72;;;23.72;18.05